Kaneville, IL (60144)

10:38 CDT le 03 juillet 2015 (GMT -0500)
Columbine | | Change Station
CLOSE
Current Station
Stations météorologiques personnelles
Location: Elburn, IL
Altitude: 837 ft
Stations météo à proximité

Alt. 837 ft 41.89 °N, 88.48 °W | Updated 5 minutes ago

Partiellement nuageux
Partiellement nuageux
72.1 ° F
Paraît 76 ° F
N
2.0
Vent Variable Vent de ESE
Gusts 5.0 mph

Aujourd'hui
Haut(e) -- | Bas -- ° F
--% Risque de précip.
Hier
Haut(e) -- | Bas -- ° F
Precip. -- pouce
5:23 AM 8:32 PM
Pleine lune, 97% visible
Pression 29.99 pouce
Visibilité 9.0 Miles terrestres
Nuages Ciel dégagé
indice de chaleur 76 ° F
Point de rosée 59 ° F
Humidité 63%
Précipitations 0.00 pouce
Profondeur de la couche neigeuse Non disponible.
UV 3.7 sur 12
Pollen 3.70 sur 12
Qualité de l'air Non disponible.
Flu Activity Non disponible.
METAR KARR 031452Z VRB04KT 9SM CLR 21/13 A2999 RMK AO2 SLP153 T02110133 50003

More Conditions Fewer Conditions

Pression 29.99 pouce
Visibilité 9.0 Miles terrestres
Nuages Ciel dégagé
indice de chaleur 76 ° F
Point de rosée 59 ° F
Humidité 63%
Précipitations 0.00 pouce
Profondeur de la couche neigeuse Non disponible.
UV 3.7 sur 12
Pollen 3.70 sur 12
Qualité de l'air Non disponible.
Flu Activity Non disponible.
METAR KARR 031452Z VRB04KT 9SM CLR 21/13 A2999 RMK AO2 SLP153 T02110133 50003

More Conditions Fewer Conditions

10-Day Weather Forecast

×

Almanac

Astronomie

Jul. 03, 2015 Lever Coucher
Temps réel
Crépuscule civil
Crépuscule nautique
Crépuscule astronomique
Lune
Durée de lumière visible
Longueur du jour
Tomorrow will be .
, % of the Moon is Illuminated

Extrêmes aujourd'hui

State Highs State Lows

Community

WunderPhotos

Upload Photos

1,834,679 Photos téléchargées !

WunderBlogs® & News

Nearby

Qualité de l'air

  Qualité de l'air Indice de la qualité de l'air Polluant
Not available.

Épaisseur de neige

Station Depth Altitude

Activité sismique

Ville Distance Mag. Time & Date
Minimum magnitude displayed is 2.5.

Températures des eaux côtières

Lieu Température

Stations

Stations météo à proximité

Emplacement de la station Température Refroidissement éolien Point de rosée Humidité Vent Precip. Alt. Mise à jour Type